Terminal Aerodrome Forecast
Issued by NWS

Home | Current Version | Previous Version | Text Only | Print | Product List | Glossary On
Versions: 1 2 3 4 5 6 7 8 9 10 11 12 13 14 15 16 17 18 19 20 21 22 23 24 25 26 27 28 29 30 31 32 33 34 35 36 37 38 39
000
FTUS41 KBTV 190808 AAA
TAFPBG
TAF AMD
KPBG 190808Z 1908/2006 22005KT P6SM VCSH OVC035
      TEMPO 1908/1911 3SM -SHSN BR OVC025
     FM191100 18005KT P6SM OVC040
     FM191500 18007KT P6SM BKN030
     FM192200 18007KT P6SM BKN035
     FM200500 17011KT P6SM BKN090=

USA.gov is the U.S. government's official web portal to all federal, state and local government web resources and services.